Terminal Aerodrome Forecast
Issued by NWS Brownsville, TX

Home | Current Version | Previous Version | Text Only | Print | Product List | Glossary On
Versions: 1 2 3 4 5 6 7 8 9 10 11 12 13 14 15
000
FTUS44 KBRO 290523
TAFBRO
TAF
KBRO 290523Z 2906/3006 11004KT P6SM SKC
     FM291500 12008KT P6SM SCT040
     FM292000 11012KT P6SM FEW060=

USA.gov is the U.S. government's official web portal to all federal, state and local government web resources and services.